createdAt,value
2022-10-24T00:02:21.593Z,2.08
2022-10-24T00:04:48.075Z,2.30
2022-10-24T00:07:14.493Z,2.30
2022-10-24T00:09:40.905Z,2.38
2022-10-24T00:12:07.506Z,2.28
2022-10-24T00:14:34.966Z,2.03
2022-10-24T00:17:01.699Z,2.25
2022-10-24T00:19:28.130Z,2.20
2022-10-24T00:21:54.561Z,2.47
2022-10-24T00:24:20.959Z,2.60
2022-10-24T00:26:47.381Z,2.50
2022-10-24T00:29:13.855Z,2.45
2022-10-24T00:31:40.334Z,2.30
2022-10-24T00:34:06.771Z,1.98
2022-10-24T00:36:33.163Z,3.00
2022-10-24T00:38:59.694Z,2.53
2022-10-24T00:41:35.672Z,2.95
2022-10-24T00:44:32.881Z,2.95
2022-10-24T00:47:02.297Z,2.80
2022-10-24T00:49:51.345Z,2.72
2022-10-24T00:52:38.523Z,2.65
2022-10-24T00:55:05.993Z,2.65
2022-10-24T00:57:48.338Z,2.90
2022-10-24T01:00:19.884Z,2.60
2022-10-24T01:02:46.829Z,2.43
2022-10-24T01:05:13.957Z,2.50
2022-10-24T01:07:52.454Z,2.85
2022-10-24T01:10:28.312Z,2.58
2022-10-24T01:12:58.230Z,2.90
2022-10-24T01:15:54.355Z,2.70
2022-10-24T01:18:28.858Z,2.80
2022-10-24T01:21:06.171Z,2.78
2022-10-24T01:23:44.523Z,2.97
2022-10-24T01:26:35.720Z,2.60
2022-10-24T01:29:08.909Z,2.80
2022-10-24T01:31:57.317Z,2.65
2022-10-24T01:34:29.063Z,2.92
2022-10-24T01:37:10.365Z,3.10
2022-10-24T01:39:45.826Z,2.95
2022-10-24T01:42:14.738Z,2.53
2022-10-24T01:44:44.029Z,3.22
2022-10-24T01:47:23.006Z,2.53
2022-10-24T01:49:53.825Z,3.63
2022-10-24T01:52:21.816Z,2.85
2022-10-24T01:54:48.897Z,2.30
2022-10-24T01:57:15.421Z,2.92
2022-10-24T01:59:47.153Z,2.88
2022-10-24T02:02:20.553Z,2.65
2022-10-24T02:04:58.073Z,2.53
2022-10-24T02:07:25.222Z,2.92
2022-10-24T02:09:54.327Z,2.83
2022-10-24T02:12:21.650Z,2.55
2022-10-24T02:14:51.988Z,2.83
2022-10-24T02:17:18.513Z,3.05
2022-10-24T02:19:45.621Z,2.80
2022-10-24T02:22:17.964Z,2.55
2022-10-24T02:24:53.615Z,2.65
2022-10-24T02:27:28.057Z,3.05
2022-10-24T02:30:00.399Z,2.75
2022-10-24T02:32:36.410Z,2.90
2022-10-24T02:35:04.187Z,2.65
2022-10-24T02:37:32.477Z,3.28
2022-10-24T02:40:00.444Z,2.30
2022-10-24T02:44:59.950Z,2.70
2022-10-24T02:47:27.094Z,3.13
2022-10-24T02:49:53.795Z,2.58
2022-10-24T02:52:20.832Z,2.45
2022-10-24T02:54:47.251Z,2.15
2022-10-24T02:57:15.103Z,2.55
2022-10-24T02:59:41.594Z,2.10
2022-10-24T03:02:08.300Z,2.53
2022-10-24T03:04:34.693Z,2.50
2022-10-24T03:07:01.087Z,2.58
2022-10-24T03:09:27.546Z,2.50
2022-10-24T03:11:53.945Z,2.20
2022-10-24T03:14:20.414Z,2.30
2022-10-24T03:16:46.795Z,2.38
2022-10-24T03:19:13.250Z,2.30
2022-10-24T03:21:40.204Z,2.85
2022-10-24T03:26:38.250Z,2.47
2022-10-24T03:29:04.903Z,3.10
2022-10-24T03:31:31.578Z,2.53
2022-10-24T03:33:58.623Z,2.63
2022-10-24T03:36:25.395Z,2.22
2022-10-24T03:38:51.811Z,2.63
2022-10-24T03:41:18.172Z,2.92
2022-10-24T03:43:44.597Z,2.70
2022-10-24T03:46:10.982Z,2.40
2022-10-24T03:48:37.378Z,3.10
2022-10-24T03:51:03.839Z,3.05
2022-10-24T03:53:30.275Z,2.70
2022-10-24T03:55:57.434Z,2.63
2022-10-24T03:58:24.193Z,2.25
2022-10-24T04:00:50.905Z,2.58
2022-10-24T04:03:17.454Z,2.30
2022-10-24T04:05:43.834Z,2.63
2022-10-24T04:08:10.311Z,2.67
2022-10-24T04:10:36.729Z,2.70
2022-10-24T04:13:03.365Z,2.38
2022-10-24T04:15:29.834Z,2.63
2022-10-24T04:17:56.321Z,2.25
2022-10-24T04:20:23.254Z,2.45
2022-10-24T04:22:49.750Z,2.53
2022-10-24T04:25:17.480Z,2.83
2022-10-24T04:27:45.424Z,2.40
2022-10-24T04:30:16.660Z,2.47
2022-10-24T04:32:44.097Z,2.70
2022-10-24T04:35:10.822Z,2.50
2022-10-24T04:37:37.314Z,2.08
2022-10-24T04:40:04.271Z,2.20
2022-10-24T04:42:30.711Z,2.25
2022-10-24T04:44:57.127Z,2.75
2022-10-24T04:47:23.554Z,2.55
2022-10-24T04:49:49.946Z,2.47
2022-10-24T04:52:16.585Z,2.58
2022-10-24T04:54:42.945Z,1.95
2022-10-24T04:57:09.341Z,2.60
2022-10-24T04:59:35.744Z,2.30
2022-10-24T05:02:02.182Z,2.58
2022-10-24T05:04:28.702Z,2.50
2022-10-24T05:06:55.298Z,2.67
2022-10-24T05:09:21.689Z,2.60
2022-10-24T05:11:48.124Z,2.30
2022-10-24T05:14:14.614Z,2.33
2022-10-24T05:16:41.050Z,2.60
2022-10-24T05:19:07.630Z,2.67
2022-10-24T05:21:34.101Z,2.60
2022-10-24T05:24:00.495Z,2.00
2022-10-24T05:26:26.920Z,2.47
2022-10-24T05:28:53.407Z,2.20
2022-10-24T05:31:20.268Z,2.30
2022-10-24T05:33:46.714Z,2.75
2022-10-24T05:36:13.228Z,2.50
2022-10-24T05:38:39.722Z,2.47
2022-10-24T05:41:06.342Z,2.35
2022-10-24T05:43:32.753Z,2.35
2022-10-24T05:45:59.129Z,2.50
2022-10-24T05:48:25.560Z,2.00
2022-10-24T05:50:56.543Z,2.72
2022-10-24T05:53:23.778Z,2.55
2022-10-24T05:55:50.172Z,2.28
2022-10-24T05:58:21.051Z,2.30
2022-10-24T06:00:53.318Z,2.30
2022-10-24T06:03:20.474Z,2.42
2022-10-24T06:05:46.876Z,2.60
2022-10-24T06:08:13.294Z,2.30
2022-10-24T06:10:39.802Z,2.20
2022-10-24T06:13:06.304Z,2.70
2022-10-24T06:15:32.713Z,2.65
2022-10-24T06:17:59.126Z,2.47
2022-10-24T06:20:25.533Z,2.45
2022-10-24T06:22:51.997Z,2.42
2022-10-24T06:25:18.446Z,2.55
2022-10-24T06:27:44.933Z,2.00
2022-10-24T06:30:11.906Z,2.30
2022-10-24T06:32:42.110Z,2.08
2022-10-24T06:37:41.859Z,2.70
2022-10-24T06:40:11.043Z,2.45
2022-10-24T06:42:37.573Z,2.30
2022-10-24T06:45:04.443Z,2.40
2022-10-24T06:47:31.630Z,2.17
2022-10-24T06:49:58.070Z,2.50
2022-10-24T06:52:24.721Z,2.55
2022-10-24T06:54:51.156Z,2.35
2022-10-24T06:57:18.819Z,2.00
2022-10-24T06:59:45.897Z,2.22
2022-10-24T07:02:16.338Z,2.00
2022-10-24T07:04:42.864Z,2.00
2022-10-24T07:07:18.046Z,2.17
2022-10-24T07:09:45.260Z,2.10
2022-10-24T07:12:12.481Z,2.63
2022-10-24T07:14:38.933Z,2.28
2022-10-24T07:17:05.730Z,2.20
2022-10-24T07:19:36.457Z,2.20
2022-10-24T07:22:03.947Z,2.15
2022-10-24T07:24:30.374Z,2.00
2022-10-24T07:26:56.738Z,2.38
2022-10-24T07:29:23.267Z,2.17
2022-10-24T07:31:49.778Z,1.80
2022-10-24T07:34:16.523Z,2.15
2022-10-24T07:36:43.961Z,1.70
2022-10-24T07:39:11.423Z,2.28
2022-10-24T07:44:13.129Z,1.75
2022-10-24T07:46:42.341Z,1.80
2022-10-24T07:49:09.070Z,1.90
2022-10-24T07:51:35.438Z,1.80
2022-10-24T07:54:01.874Z,1.70
2022-10-24T07:56:28.490Z,2.00
2022-10-24T07:58:56.532Z,1.65
2022-10-24T08:01:25.238Z,1.70
2022-10-24T08:03:51.848Z,1.65
2022-10-24T08:06:21.010Z,1.77
2022-10-24T08:08:47.443Z,1.73
2022-10-24T08:11:21.475Z,1.60
2022-10-24T08:13:48.800Z,1.50
2022-10-24T08:16:16.427Z,1.73
2022-10-24T08:18:43.366Z,1.92
2022-10-24T08:21:12.945Z,2.05
2022-10-24T08:23:42.158Z,1.60
2022-10-24T08:26:11.888Z,2.10
2022-10-24T08:28:38.297Z,1.67
2022-10-24T08:31:10.684Z,1.58
2022-10-24T08:33:37.061Z,1.80
2022-10-24T08:36:06.397Z,1.75
2022-10-24T08:38:35.007Z,1.90
2022-10-24T08:41:01.488Z,1.25
2022-10-24T08:43:27.956Z,1.55
2022-10-24T08:46:20.595Z,1.70
2022-10-24T08:48:55.249Z,1.38
2022-10-24T08:51:34.768Z,1.50
2022-10-24T08:54:01.409Z,1.40
2022-10-24T08:56:29.910Z,1.33
2022-10-24T08:58:57.196Z,1.63
2022-10-24T09:01:32.804Z,1.35
2022-10-24T09:04:00.358Z,2.25
2022-10-24T09:06:29.037Z,1.83
2022-10-24T09:08:56.490Z,1.70
2022-10-24T09:11:41.890Z,1.67
2022-10-24T09:14:20.444Z,1.67
2022-10-24T09:16:53.183Z,2.13
2022-10-24T09:19:22.281Z,1.75
2022-10-24T09:21:49.382Z,1.40
2022-10-24T09:24:36.620Z,1.50
2022-10-24T09:27:06.163Z,1.58
2022-10-24T09:29:33.860Z,1.80
2022-10-24T09:32:01.107Z,1.95
2022-10-24T09:34:27.610Z,1.50
2022-10-24T09:36:53.985Z,1.50
2022-10-24T09:39:38.546Z,1.90
2022-10-24T09:42:04.970Z,1.40
2022-10-24T09:44:40.971Z,1.48
2022-10-24T09:47:22.097Z,1.38
2022-10-24T09:49:48.730Z,1.58
2022-10-24T09:52:22.306Z,1.52
2022-10-24T09:55:16.550Z,1.30
2022-10-24T09:57:43.130Z,1.77
2022-10-24T10:00:29.867Z,1.50
2022-10-24T10:03:02.095Z,1.45
2022-10-24T10:05:42.222Z,1.35
2022-10-24T10:08:18.558Z,1.70
2022-10-24T10:10:58.346Z,1.63
2022-10-24T10:13:27.482Z,1.20
2022-10-24T10:15:56.972Z,1.88
2022-10-24T10:18:37.507Z,1.48
2022-10-24T10:21:27.097Z,1.65
2022-10-24T10:23:56.132Z,1.40
2022-10-24T10:26:29.236Z,1.52
2022-10-24T10:29:08.898Z,1.30
2022-10-24T10:31:41.253Z,1.40
2022-10-24T10:34:25.892Z,1.27
2022-10-24T10:37:11.021Z,1.42
2022-10-24T10:39:59.263Z,1.42
2022-10-24T10:43:07.804Z,1.50
2022-10-24T10:45:48.977Z,1.50
2022-10-24T10:48:35.877Z,1.48
2022-10-24T10:51:08.147Z,1.27
2022-10-24T10:53:43.194Z,1.00
2022-10-24T10:56:22.194Z,1.38
2022-10-24T10:59:27.094Z,1.48
2022-10-24T11:02:10.470Z,1.30
2022-10-24T11:04:53.404Z,1.52
2022-10-24T11:07:22.753Z,1.65
2022-10-24T11:09:54.336Z,1.30
2022-10-24T11:12:25.090Z,1.70
2022-10-24T11:14:52.898Z,1.25
2022-10-24T11:17:23.187Z,1.63
2022-10-24T11:20:06.661Z,1.00
2022-10-24T11:22:43.303Z,1.23
2022-10-24T11:25:21.074Z,1.23
2022-10-24T11:27:52.532Z,1.40
2022-10-24T11:30:20.642Z,1.48
2022-10-24T11:33:02.188Z,1.52
2022-10-24T11:35:33.655Z,1.42
2022-10-24T11:38:07.185Z,1.92
2022-10-24T11:40:33.844Z,1.30
2022-10-24T11:43:21.867Z,1.30
2022-10-24T11:45:48.289Z,1.55
2022-10-24T11:48:38.346Z,1.33
2022-10-24T11:51:12.656Z,1.45
2022-10-24T11:53:40.774Z,1.50
2022-10-24T11:56:41.418Z,1.63
2022-10-24T11:59:13.075Z,1.42
2022-10-24T12:01:58.167Z,1.25
2022-10-24T12:04:27.419Z,1.55
2022-10-24T12:06:59.868Z,1.25
2022-10-24T12:12:27.791Z,1.33
2022-10-24T12:15:16.773Z,1.30
2022-10-24T12:17:55.246Z,1.63
2022-10-24T12:20:23.256Z,1.50
2022-10-24T12:22:50.055Z,1.70
2022-10-24T12:25:36.607Z,1.50
2022-10-24T12:28:14.798Z,1.60
2022-10-24T12:30:41.278Z,1.70
2022-10-24T12:33:31.089Z,1.80
2022-10-24T12:35:58.064Z,1.52
2022-10-24T12:38:27.487Z,1.45
2022-10-24T12:40:58.526Z,1.40
2022-10-24T12:43:51.234Z,1.27
2022-10-24T12:46:22.966Z,1.40
2022-10-24T12:48:59.210Z,1.70
2022-10-24T12:51:37.239Z,1.58
2022-10-24T12:54:12.628Z,1.80
2022-10-24T12:56:51.238Z,1.58
2022-10-24T12:59:28.351Z,1.45
2022-10-24T13:02:13.083Z,1.42
2022-10-24T13:04:57.317Z,1.65
2022-10-24T13:07:38.328Z,1.67
2022-10-24T13:10:22.920Z,1.60
2022-10-24T13:13:23.661Z,1.42
2022-10-24T13:16:27.398Z,1.42
2022-10-24T13:19:22.021Z,1.50
2022-10-24T13:21:51.262Z,1.33
2022-10-24T13:24:19.779Z,1.60
2022-10-24T13:26:53.569Z,1.50
2022-10-24T13:29:26.051Z,1.63
2022-10-24T13:34:30.206Z,1.30
2022-10-24T13:37:03.099Z,1.40
2022-10-24T13:39:35.745Z,1.73
2022-10-24T13:42:11.738Z,1.38
2022-10-24T13:44:48.555Z,1.45
2022-10-24T13:47:17.070Z,1.50
2022-10-24T13:50:04.410Z,1.67
2022-10-24T13:52:49.526Z,1.67
2022-10-24T13:55:27.439Z,1.60
2022-10-24T13:58:05.605Z,1.30
2022-10-24T14:00:35.677Z,1.70
2022-10-24T14:03:05.051Z,1.73
2022-10-24T14:05:40.508Z,1.52
2022-10-24T14:08:07.876Z,1.67
2022-10-24T14:10:34.321Z,1.65
2022-10-24T14:13:00.908Z,1.50
2022-10-24T14:15:30.210Z,1.50
2022-10-24T14:18:02.444Z,1.33
2022-10-24T14:20:37.211Z,1.50
2022-10-24T14:23:17.988Z,1.50
2022-10-24T14:25:44.416Z,1.35
2022-10-24T14:28:20.411Z,1.25
2022-10-24T14:30:55.622Z,1.60
2022-10-24T14:33:30.572Z,1.45
2022-10-24T14:35:59.474Z,1.77
2022-10-24T14:38:26.861Z,1.65
2022-10-24T14:41:06.263Z,1.10
2022-10-24T14:43:34.554Z,1.30
2022-10-24T14:46:26.189Z,1.58
2022-10-24T14:48:52.886Z,1.33
2022-10-24T14:51:39.271Z,1.50
2022-10-24T14:54:17.825Z,1.30
2022-10-24T14:56:44.485Z,1.40
2022-10-24T14:59:27.584Z,1.80
2022-10-24T15:01:55.671Z,1.48
2022-10-24T15:04:40.061Z,1.55
2022-10-24T15:07:28.235Z,1.50
2022-10-24T15:10:18.793Z,1.67
2022-10-24T15:13:01.639Z,1.70
2022-10-24T15:15:34.146Z,1.55
2022-10-24T15:18:09.545Z,1.77
2022-10-24T15:20:39.269Z,1.73
2022-10-24T15:23:06.932Z,1.50
2022-10-24T15:25:42.022Z,1.50
2022-10-24T15:28:48.064Z,1.58
2022-10-24T15:31:17.203Z,2.10
2022-10-24T15:33:44.113Z,1.60
2022-10-24T15:36:19.791Z,1.88
2022-10-24T15:38:46.193Z,1.70
2022-10-24T15:41:12.564Z,1.80
2022-10-24T15:43:38.934Z,1.45
2022-10-24T15:46:05.440Z,1.85
2022-10-24T15:48:31.802Z,1.73
2022-10-24T15:50:58.314Z,2.00
2022-10-24T15:53:24.801Z,2.08
2022-10-24T15:55:51.334Z,2.08
2022-10-24T15:58:18.169Z,1.40
2022-10-24T16:00:44.596Z,1.83
2022-10-24T16:03:17.387Z,1.50
2022-10-24T16:05:47.061Z,1.75
2022-10-24T16:08:15.559Z,1.60
2022-10-24T16:10:43.522Z,1.55
2022-10-24T16:13:13.000Z,1.40
2022-10-24T16:15:39.858Z,1.30
2022-10-24T16:18:06.312Z,1.50
2022-10-24T16:20:33.103Z,1.40
2022-10-24T16:22:59.531Z,1.55
2022-10-24T16:25:29.334Z,1.38
2022-10-24T16:27:56.184Z,1.60
2022-10-24T16:30:30.869Z,1.40
2022-10-24T16:32:57.695Z,1.48
2022-10-24T16:35:29.722Z,1.45
2022-10-24T16:37:57.591Z,1.70
2022-10-24T16:40:24.838Z,1.55
2022-10-24T16:42:52.103Z,1.60
2022-10-24T16:45:19.371Z,1.50
2022-10-24T16:47:45.932Z,1.83
2022-10-24T16:50:15.071Z,1.60
2022-10-24T16:52:41.545Z,1.58
2022-10-24T16:55:08.712Z,1.80
2022-10-24T16:57:35.114Z,1.70
2022-10-24T17:00:01.520Z,1.63
2022-10-24T17:02:27.924Z,1.70
2022-10-24T17:04:54.315Z,1.63
2022-10-24T17:07:20.706Z,1.83
2022-10-24T17:09:47.239Z,1.60
2022-10-24T17:12:13.782Z,1.98
2022-10-24T17:14:40.260Z,1.88
2022-10-24T17:17:06.783Z,1.90
2022-10-24T17:19:35.575Z,1.90
2022-10-24T17:22:02.273Z,1.60
2022-10-24T17:24:28.832Z,1.98
2022-10-24T17:26:55.245Z,1.80
2022-10-24T17:29:32.822Z,2.10
2022-10-24T17:31:59.804Z,2.00
2022-10-24T17:34:26.705Z,2.08
2022-10-24T17:37:04.967Z,2.00
2022-10-24T17:39:37.633Z,1.60
2022-10-24T17:42:09.293Z,1.75
2022-10-24T17:44:37.729Z,1.80
2022-10-24T17:47:05.314Z,1.90
2022-10-24T17:49:31.820Z,1.80
2022-10-24T17:51:58.200Z,1.90
2022-10-24T17:54:24.555Z,2.13
2022-10-24T17:56:50.974Z,2.10
2022-10-24T17:59:17.338Z,1.92
2022-10-24T18:01:43.902Z,1.45
2022-10-24T18:04:11.128Z,1.85
2022-10-24T18:06:40.780Z,1.80
2022-10-24T18:09:09.874Z,1.38
2022-10-24T18:11:36.241Z,1.60
2022-10-24T18:14:03.177Z,1.52
2022-10-24T18:16:30.718Z,1.67
2022-10-24T18:18:57.562Z,2.20
2022-10-24T18:21:25.509Z,1.65
2022-10-24T18:23:52.742Z,1.60
2022-10-24T18:26:22.662Z,1.67
2022-10-24T18:28:50.954Z,1.55
2022-10-24T18:31:28.250Z,1.70
2022-10-24T18:33:55.443Z,2.13
2022-10-24T18:36:24.625Z,2.00
2022-10-24T18:38:53.640Z,1.83
2022-10-24T18:41:37.182Z,2.20
2022-10-24T18:44:19.116Z,1.92
2022-10-24T18:46:45.682Z,1.88
2022-10-24T18:49:12.215Z,1.73
2022-10-24T18:51:42.686Z,2.10
2022-10-24T18:54:16.141Z,2.08
2022-10-24T18:56:42.782Z,2.45
2022-10-24T18:59:12.749Z,2.53
2022-10-24T19:01:45.857Z,2.30
2022-10-24T19:04:19.024Z,2.55
2022-10-24T19:06:47.424Z,2.22
2022-10-24T19:09:19.804Z,2.30
2022-10-24T19:11:48.724Z,2.33
2022-10-24T19:14:16.128Z,2.25
2022-10-24T19:16:46.368Z,2.25
2022-10-24T19:19:14.327Z,2.03
2022-10-24T19:21:40.720Z,1.85
2022-10-24T19:24:07.306Z,2.28
2022-10-24T19:26:33.789Z,2.25
2022-10-24T19:29:03.484Z,2.20
2022-10-24T19:31:32.013Z,1.95
2022-10-24T19:33:58.402Z,2.47
2022-10-24T19:38:57.500Z,3.05
2022-10-24T19:41:24.112Z,2.58
2022-10-24T19:43:53.107Z,2.50
2022-10-24T19:46:20.523Z,2.78
2022-10-24T19:48:49.261Z,3.17
2022-10-24T19:51:17.253Z,3.67
2022-10-24T19:53:44.487Z,2.47
2022-10-24T19:56:18.186Z,2.63
2022-10-24T19:58:46.889Z,2.30
2022-10-24T20:01:15.764Z,2.58
2022-10-24T20:03:44.805Z,2.70
2022-10-24T20:06:11.696Z,2.97
2022-10-24T20:08:38.405Z,2.70
2022-10-24T20:11:05.438Z,2.67
2022-10-24T20:13:31.907Z,2.60
2022-10-24T20:16:02.743Z,2.95
2022-10-24T20:18:30.179Z,3.08
2022-10-24T20:20:57.107Z,2.60
2022-10-24T20:23:24.650Z,3.03
2022-10-24T20:25:58.526Z,2.88
2022-10-24T20:28:24.957Z,2.63
2022-10-24T20:30:51.589Z,2.95
2022-10-24T20:33:17.989Z,3.35
2022-10-24T20:35:44.702Z,3.25
2022-10-24T20:38:11.279Z,2.85
2022-10-24T20:40:37.784Z,2.95
2022-10-24T20:43:06.883Z,2.88
2022-10-24T20:45:34.629Z,2.70
2022-10-24T20:48:01.499Z,2.53
2022-10-24T20:50:27.897Z,2.00
2022-10-24T20:52:54.541Z,2.38
2022-10-24T20:55:31.709Z,2.53
2022-10-24T20:58:06.320Z,2.10
2022-10-24T21:00:32.898Z,2.47
2022-10-24T21:02:59.412Z,2.25
2022-10-24T21:05:27.241Z,1.90
2022-10-24T21:07:53.628Z,2.30
2022-10-24T21:10:20.336Z,2.25
2022-10-24T21:12:47.695Z,2.10
2022-10-24T21:15:14.614Z,1.98
2022-10-24T21:17:40.998Z,2.03
2022-10-24T21:20:07.656Z,1.70
2022-10-24T21:22:34.050Z,2.10
2022-10-24T21:25:00.409Z,1.90
2022-10-24T21:27:26.837Z,1.80
2022-10-24T21:29:53.294Z,2.00
2022-10-24T21:32:19.671Z,1.98
2022-10-24T21:34:46.044Z,1.70
2022-10-24T21:37:12.446Z,2.15
2022-10-24T21:39:38.830Z,1.60
2022-10-24T21:42:05.403Z,1.67
2022-10-24T21:44:31.786Z,1.67
2022-10-24T21:46:58.337Z,1.67
2022-10-24T21:49:25.642Z,1.75
2022-10-24T21:51:52.145Z,1.45
2022-10-24T21:54:21.209Z,1.40
2022-10-24T21:56:48.022Z,1.50
2022-10-24T21:59:17.202Z,1.50
2022-10-24T22:01:45.816Z,1.85
2022-10-24T22:04:13.234Z,1.63
2022-10-24T22:06:39.848Z,1.85
2022-10-24T22:09:08.228Z,1.70
2022-10-24T22:11:36.203Z,1.60
2022-10-24T22:14:03.798Z,1.48
2022-10-24T22:16:31.097Z,1.95
2022-10-24T22:19:00.621Z,1.48
2022-10-24T22:21:32.048Z,1.50
2022-10-24T22:24:00.138Z,1.80
2022-10-24T22:26:26.911Z,1.60
2022-10-24T22:28:55.768Z,1.75
2022-10-24T22:31:23.486Z,2.00
2022-10-24T22:33:51.192Z,1.60
2022-10-24T22:36:42.458Z,1.55
2022-10-24T22:39:17.978Z,2.13
2022-10-24T22:41:45.205Z,2.00
2022-10-24T22:44:13.810Z,2.13
2022-10-24T22:47:10.630Z,1.70
2022-10-24T22:50:03.215Z,1.90
2022-10-24T22:52:29.828Z,2.20
2022-10-24T22:54:56.446Z,1.60
2022-10-24T22:57:23.208Z,2.15
2022-10-24T22:59:49.910Z,1.95
2022-10-24T23:02:33.264Z,2.05
2022-10-24T23:05:05.584Z,1.73
2022-10-24T23:07:47.870Z,1.50
2022-10-24T23:10:19.457Z,1.65
2022-10-24T23:12:46.289Z,1.50
2022-10-24T23:15:14.532Z,1.60
2022-10-24T23:17:41.304Z,1.70
2022-10-24T23:20:34.064Z,1.42
2022-10-24T23:23:15.996Z,1.67
2022-10-24T23:25:48.217Z,1.48
2022-10-24T23:28:26.454Z,1.73
2022-10-24T23:30:53.201Z,1.38
2022-10-24T23:33:23.293Z,1.50
2022-10-24T23:35:57.080Z,1.73
2022-10-24T23:38:25.048Z,1.77
2022-10-24T23:40:51.869Z,1.40
2022-10-24T23:43:20.350Z,1.38
2022-10-24T23:46:13.986Z,1.70
2022-10-24T23:49:01.972Z,1.45
2022-10-24T23:51:38.692Z,1.50
2022-10-24T23:54:08.950Z,1.60
2022-10-24T23:56:35.706Z,1.50
2022-10-24T23:59:02.099Z,1.48
